TimeMDT,TemperatureF,Dew PointF,Humidity,Sea Level PressureIn,VisibilityMPH,Wind Direction,Wind SpeedMPH,Gust SpeedMPH,PrecipitationIn,Events,Conditions,WindDirDegrees,DateUTC
12:53 AM,44.1,25.0,47,30.17,10.0,SE,8.1,-,N/A,,Clear,130,2013-03-15 06:53:00
1:53 AM,41.0,26.1,55,30.16,10.0,South,4.6,-,N/A,,Clear,170,2013-03-15 07:53:00
2:53 AM,39.0,26.1,60,30.16,10.0,SE,6.9,-,N/A,,Clear,140,2013-03-15 08:53:00
3:53 AM,41.0,25.0,53,30.12,10.0,SE,9.2,-,N/A,,Clear,140,2013-03-15 09:53:00
4:53 AM,39.0,25.0,57,30.10,10.0,South,6.9,-,N/A,,Clear,180,2013-03-15 10:53:00
5:53 AM,39.9,25.0,55,30.10,10.0,Calm,Calm,-,N/A,,Clear,0,2013-03-15 11:53:00
6:53 AM,37.0,25.0,62,30.12,10.0,South,4.6,-,N/A,,Clear,170,2013-03-15 12:53:00
7:53 AM,36.0,25.0,64,30.15,10.0,South,8.1,-,N/A,,Clear,170,2013-03-15 13:53:00
8:53 AM,43.0,27.0,53,30.12,10.0,Calm,Calm,-,N/A,,Clear,0,2013-03-15 14:53:00
9:53 AM,50.0,25.0,38,30.12,10.0,WSW,3.5,-,N/A,,Clear,240,2013-03-15 15:53:00
10:53 AM,57.0,24.1,28,30.07,10.0,SSE,4.6,-,N/A,,Clear,160,2013-03-15 16:53:00
11:53 AM,60.1,21.9,23,30.05,10.0,WNW,5.8,-,N/A,,Clear,290,2013-03-15 17:53:00
12:53 PM,60.1,27.0,28,30.03,10.0,North,4.6,-,N/A,,Clear,360,2013-03-15 18:53:00
1:53 PM,63.0,27.0,26,30.00,10.0,North,3.5,-,N/A,,Clear,360,2013-03-15 19:53:00
2:53 PM,66.0,23.0,20,29.96,10.0,North,5.8,-,N/A,,Clear,360,2013-03-15 20:53:00
3:53 PM,66.9,21.0,17,29.94,10.0,North,6.9,-,N/A,,Clear,360,2013-03-15 21:53:00
4:53 PM,66.9,19.9,17,29.91,10.0,Calm,Calm,-,N/A,,Clear,0,2013-03-15 22:53:00
5:53 PM,66.9,21.9,18,29.89,10.0,ENE,3.5,-,N/A,,Clear,70,2013-03-15 23:53:00
6:53 PM,63.0,26.1,25,29.91,10.0,East,4.6,-,N/A,,Clear,100,2013-03-16 00:53:00
7:53 PM,55.9,28.0,34,29.94,10.0,ESE,5.8,-,N/A,,Clear,110,2013-03-16 01:53:00
8:53 PM,52.0,28.9,41,29.94,10.0,ESE,4.6,-,N/A,,Clear,110,2013-03-16 02:53:00
9:53 PM,50.0,30.0,46,29.92,10.0,SE,8.1,-,N/A,,Clear,140,2013-03-16 03:53:00
10:53 PM,48.0,30.9,52,29.89,10.0,SSE,6.9,-,N/A,,Clear,160,2013-03-16 04:53:00
11:53 PM,48.0,28.9,48,29.88,10.0,SE,10.4,-,N/A,,Clear,140,2013-03-16 05:53:00